createdAt,value
2022-10-20T00:01:34.069Z,3.05
2022-10-20T00:04:00.898Z,3.22
2022-10-20T00:06:30.026Z,2.78
2022-10-20T00:08:58.793Z,3.03
2022-10-20T00:11:26.704Z,2.95
2022-10-20T00:13:55.395Z,3.13
2022-10-20T00:16:24.778Z,2.75
2022-10-20T00:21:21.404Z,3.08
2022-10-20T00:23:48.198Z,3.00
2022-10-20T00:26:16.626Z,2.90
2022-10-20T00:28:43.485Z,3.20
2022-10-20T00:31:11.559Z,2.75
2022-10-20T00:33:38.111Z,2.83
2022-10-20T00:36:07.018Z,3.15
2022-10-20T00:38:33.808Z,3.05
2022-10-20T00:41:03.015Z,2.70
2022-10-20T00:43:46.951Z,3.00
2022-10-20T00:46:17.201Z,2.75
2022-10-20T00:48:50.299Z,2.95
2022-10-20T00:51:19.998Z,3.03
2022-10-20T00:53:48.697Z,2.60
2022-10-20T00:56:15.603Z,2.72
2022-10-20T00:58:43.566Z,2.90
2022-10-20T01:01:12.416Z,2.72
2022-10-20T01:03:47.522Z,2.70
2022-10-20T01:08:52.704Z,2.70
2022-10-20T01:11:42.449Z,2.88
2022-10-20T01:14:38.297Z,2.55
2022-10-20T01:17:07.787Z,2.67
2022-10-20T01:19:45.152Z,2.60
2022-10-20T01:22:50.437Z,3.00
2022-10-20T01:25:42.760Z,2.55
2022-10-20T01:28:23.733Z,2.40
2022-10-20T01:30:57.649Z,2.20
2022-10-20T01:33:52.816Z,2.53
2022-10-20T01:36:34.999Z,2.42
2022-10-20T01:39:12.552Z,2.55
2022-10-20T01:42:00.574Z,2.30
2022-10-20T01:44:29.511Z,2.67
2022-10-20T01:46:58.663Z,2.53
2022-10-20T01:49:25.959Z,2.80
2022-10-20T01:51:53.637Z,2.80
2022-10-20T01:54:29.164Z,2.38
2022-10-20T01:57:35.441Z,2.80
2022-10-20T02:00:04.554Z,2.63
2022-10-20T02:02:55.485Z,2.40
2022-10-20T02:05:27.940Z,2.15
2022-10-20T02:08:03.464Z,2.72
2022-10-20T02:10:40.698Z,2.75
2022-10-20T02:13:11.340Z,2.45
2022-10-20T02:15:42.023Z,2.50
2022-10-20T02:18:12.777Z,2.60
2022-10-20T02:20:42.908Z,2.72
2022-10-20T02:23:10.961Z,2.20
2022-10-20T02:25:39.573Z,2.50
2022-10-20T02:28:10.751Z,2.97
2022-10-20T02:30:38.821Z,2.50
2022-10-20T02:33:07.368Z,2.30
2022-10-20T02:35:34.981Z,2.67
2022-10-20T02:38:02.312Z,2.65
2022-10-20T02:40:29.225Z,2.22
2022-10-20T02:42:55.831Z,2.55
2022-10-20T02:45:22.437Z,2.60
2022-10-20T02:47:49.067Z,2.40
2022-10-20T02:50:17.075Z,2.67
2022-10-20T02:52:43.915Z,2.70
2022-10-20T02:55:10.494Z,2.47
2022-10-20T02:57:37.271Z,2.63
2022-10-20T03:00:06.019Z,2.80
2022-10-20T03:02:32.593Z,2.55
2022-10-20T03:04:59.167Z,2.58
2022-10-20T03:07:25.881Z,2.83
2022-10-20T03:09:52.372Z,2.60
2022-10-20T03:12:19.071Z,2.10
2022-10-20T03:14:45.789Z,2.67
2022-10-20T03:17:12.515Z,2.40
2022-10-20T03:19:40.908Z,2.53
2022-10-20T03:22:07.635Z,2.30
2022-10-20T03:24:34.380Z,2.45
2022-10-20T03:27:01.152Z,2.67
2022-10-20T03:29:27.863Z,2.50
2022-10-20T03:31:54.596Z,2.60
2022-10-20T03:34:21.513Z,2.80
2022-10-20T03:36:48.149Z,2.50
2022-10-20T03:39:14.884Z,2.67
2022-10-20T03:41:41.695Z,2.38
2022-10-20T03:44:10.497Z,2.42
2022-10-20T03:46:37.156Z,2.45
2022-10-20T03:49:04.216Z,2.55
2022-10-20T03:51:31.133Z,2.50
2022-10-20T03:53:57.812Z,2.17
2022-10-20T03:56:24.716Z,2.45
2022-10-20T03:58:51.554Z,2.55
2022-10-20T04:01:23.843Z,2.67
2022-10-20T04:03:50.418Z,2.30
2022-10-20T04:06:17.001Z,2.60
2022-10-20T04:08:43.753Z,2.33
2022-10-20T04:11:10.440Z,2.60
2022-10-20T04:13:39.614Z,2.08
2022-10-20T04:16:06.616Z,2.38
2022-10-20T04:18:33.219Z,2.10
2022-10-20T04:20:59.849Z,2.60
2022-10-20T04:23:26.431Z,2.10
2022-10-20T04:25:53.029Z,2.40
2022-10-20T04:28:20.829Z,2.38
2022-10-20T04:30:47.759Z,2.45
2022-10-20T04:33:14.632Z,2.25
2022-10-20T04:35:41.642Z,2.58
2022-10-20T04:38:08.621Z,1.80
2022-10-20T04:40:35.211Z,2.30
2022-10-20T04:43:01.751Z,2.22
2022-10-20T04:45:28.479Z,2.20
2022-10-20T04:47:55.064Z,2.80
2022-10-20T04:50:21.913Z,2.10
2022-10-20T04:53:01.421Z,2.17
2022-10-20T04:55:27.950Z,2.40
2022-10-20T04:57:54.440Z,2.53
2022-10-20T05:00:21.191Z,2.60
2022-10-20T05:02:47.871Z,2.20
2022-10-20T05:05:14.633Z,2.70
2022-10-20T05:07:41.241Z,2.50
2022-10-20T05:10:08.378Z,2.45
2022-10-20T05:12:35.247Z,2.70
2022-10-20T05:15:02.020Z,2.40
2022-10-20T05:17:31.428Z,2.30
2022-10-20T05:19:58.031Z,2.42
2022-10-20T05:22:24.698Z,2.63
2022-10-20T05:24:51.260Z,2.33
2022-10-20T05:27:17.854Z,2.45
2022-10-20T05:29:44.443Z,2.58
2022-10-20T05:32:11.501Z,2.70
2022-10-20T05:34:39.040Z,2.70
2022-10-20T05:37:05.644Z,2.38
2022-10-20T05:39:32.424Z,2.35
2022-10-20T05:41:58.939Z,2.47
2022-10-20T05:44:25.542Z,2.20
2022-10-20T05:46:52.204Z,2.13
2022-10-20T05:49:23.449Z,2.47
2022-10-20T05:51:49.981Z,2.25
2022-10-20T05:54:17.229Z,2.00
2022-10-20T05:56:47.645Z,2.22
2022-10-20T05:59:14.560Z,2.10
2022-10-20T06:01:48.368Z,2.78
2022-10-20T06:04:18.062Z,2.30
2022-10-20T06:06:44.941Z,2.30
2022-10-20T06:09:12.082Z,1.95
2022-10-20T06:11:39.820Z,2.03
2022-10-20T06:14:08.898Z,2.10
2022-10-20T06:16:36.151Z,2.22
2022-10-20T06:19:03.226Z,2.35
2022-10-20T06:21:32.655Z,2.33
2022-10-20T06:24:02.303Z,2.13
2022-10-20T06:26:29.951Z,2.20
2022-10-20T06:29:03.590Z,2.28
2022-10-20T06:31:39.075Z,2.33
2022-10-20T06:34:13.133Z,1.73
2022-10-20T06:36:40.412Z,2.33
2022-10-20T06:39:08.347Z,2.03
2022-10-20T06:41:35.781Z,2.22
2022-10-20T06:44:02.890Z,2.53
2022-10-20T06:46:31.722Z,2.13
2022-10-20T06:49:03.700Z,2.13
2022-10-20T06:51:31.080Z,2.30
2022-10-20T06:53:59.639Z,2.10
2022-10-20T06:56:28.928Z,1.90
2022-10-20T07:01:25.756Z,2.50
2022-10-20T07:06:24.767Z,2.03
2022-10-20T07:08:53.709Z,1.98
2022-10-20T07:11:22.243Z,2.05
2022-10-20T07:13:59.109Z,2.10
2022-10-20T07:16:28.717Z,2.10
2022-10-20T07:18:57.241Z,2.20
2022-10-20T07:21:32.479Z,2.17
2022-10-20T07:24:03.982Z,2.00
2022-10-20T07:26:33.323Z,2.40
2022-10-20T07:31:31.001Z,1.88
2022-10-20T07:34:13.577Z,2.10
2022-10-20T07:36:43.401Z,1.92
2022-10-20T07:39:11.482Z,2.40
2022-10-20T07:41:39.554Z,2.33
2022-10-20T07:44:07.040Z,2.33
2022-10-20T07:46:33.585Z,2.30
2022-10-20T07:49:23.954Z,2.35
2022-10-20T07:51:46.748Z,2.10
2022-10-20T07:54:13.574Z,2.40
2022-10-20T07:56:42.813Z,2.55
2022-10-20T08:01:37.571Z,2.33
2022-10-20T08:04:04.588Z,2.20
2022-10-20T08:06:31.712Z,2.70
2022-10-20T08:08:58.753Z,2.65
2022-10-20T08:11:26.342Z,2.63
2022-10-20T08:13:53.176Z,2.70
2022-10-20T08:16:25.879Z,2.40
2022-10-20T08:21:32.916Z,2.90
2022-10-20T08:23:59.637Z,2.80
2022-10-20T08:26:26.536Z,3.20
2022-10-20T08:28:54.811Z,2.30
2022-10-20T08:31:22.337Z,2.90
2022-10-20T08:33:52.623Z,2.50
2022-10-20T08:36:20.671Z,2.50
2022-10-20T08:38:47.847Z,2.80
2022-10-20T08:41:23.156Z,3.25
2022-10-20T08:43:52.958Z,2.42
2022-10-20T08:46:23.355Z,2.63
2022-10-20T08:48:50.945Z,2.88
2022-10-20T08:51:28.028Z,3.08
2022-10-20T08:53:58.154Z,2.85
2022-10-20T08:56:29.513Z,2.88
2022-10-20T08:58:56.918Z,3.20
2022-10-20T09:01:43.850Z,2.95
2022-10-20T09:04:23.467Z,2.97
2022-10-20T09:07:05.847Z,2.97
2022-10-20T09:09:33.538Z,2.97
2022-10-20T09:12:06.108Z,3.00
2022-10-20T09:14:36.272Z,2.63
2022-10-20T09:17:07.942Z,2.60
2022-10-20T09:19:36.420Z,2.97
2022-10-20T09:22:06.173Z,2.83
2022-10-20T09:24:35.517Z,2.83
2022-10-20T09:29:57.832Z,2.60
2022-10-20T09:32:56.427Z,2.70
2022-10-20T09:35:30.321Z,2.78
2022-10-20T09:38:20.013Z,2.92
2022-10-20T09:40:55.062Z,2.65
2022-10-20T09:43:21.906Z,2.58
2022-10-20T09:46:03.824Z,3.10
2022-10-20T09:48:42.497Z,2.63
2022-10-20T09:51:16.035Z,2.77
2022-10-20T09:54:03.435Z,3.05
2022-10-20T09:56:33.486Z,2.55
2022-10-20T09:59:02.103Z,2.80
2022-10-20T10:01:28.884Z,2.90
2022-10-20T10:04:01.666Z,2.55
2022-10-20T10:06:46.241Z,2.40
2022-10-20T10:09:35.061Z,2.70
2022-10-20T10:12:10.427Z,2.63
2022-10-20T10:14:37.560Z,2.65
2022-10-20T10:17:04.381Z,2.80
2022-10-20T10:19:33.232Z,2.88
2022-10-20T10:22:03.820Z,2.95
2022-10-20T10:24:40.767Z,2.70
2022-10-20T10:27:19.479Z,2.85
2022-10-20T10:29:46.142Z,2.42
2022-10-20T10:32:19.590Z,2.95
2022-10-20T10:35:34.137Z,2.78
2022-10-20T10:38:01.161Z,2.67
2022-10-20T10:40:53.715Z,3.05
2022-10-20T10:43:29.474Z,2.53
2022-10-20T10:46:29.228Z,3.05
2022-10-20T10:49:08.226Z,3.00
2022-10-20T10:51:59.462Z,2.72
2022-10-20T10:54:55.541Z,2.92
2022-10-20T10:57:54.546Z,2.35
2022-10-20T11:01:03.319Z,2.65
2022-10-20T11:03:47.596Z,2.50
2022-10-20T11:06:32.932Z,2.70
2022-10-20T11:09:18.171Z,2.40
2022-10-20T11:12:15.111Z,2.60
2022-10-20T11:15:11.032Z,2.45
2022-10-20T11:17:45.993Z,2.53
2022-10-20T11:20:21.156Z,2.50
2022-10-20T11:23:09.214Z,2.67
2022-10-20T11:25:54.832Z,2.83
2022-10-20T11:28:37.069Z,2.60
2022-10-20T11:31:04.840Z,3.03
2022-10-20T11:33:44.599Z,2.97
2022-10-20T11:36:18.345Z,2.70
2022-10-20T11:38:54.599Z,2.67
2022-10-20T11:41:33.641Z,2.75
2022-10-20T11:44:07.506Z,2.80
2022-10-20T11:46:40.546Z,2.53
2022-10-20T11:49:09.005Z,2.30
2022-10-20T11:51:47.973Z,2.53
2022-10-20T11:54:51.923Z,3.10
2022-10-20T11:57:57.699Z,2.70
2022-10-20T12:00:29.804Z,2.50
2022-10-20T12:03:23.943Z,2.35
2022-10-20T12:06:06.319Z,2.60
2022-10-20T12:09:05.105Z,2.75
2022-10-20T12:11:51.561Z,2.60
2022-10-20T12:14:30.234Z,2.55
2022-10-20T12:17:04.414Z,2.60
2022-10-20T12:19:35.397Z,2.70
2022-10-20T12:22:26.078Z,2.47
2022-10-20T12:24:52.837Z,2.25
2022-10-20T12:27:23.093Z,2.50
2022-10-20T12:29:57.705Z,2.30
2022-10-20T12:32:54.522Z,2.70
2022-10-20T12:35:23.845Z,2.25
2022-10-20T12:40:32.645Z,2.83
2022-10-20T12:43:00.219Z,2.30
2022-10-20T12:45:44.946Z,1.95
2022-10-20T12:48:20.959Z,2.63
2022-10-20T12:50:50.098Z,2.17
2022-10-20T12:53:24.607Z,2.08
2022-10-20T12:56:00.958Z,2.40
2022-10-20T12:58:32.378Z,2.60
2022-10-20T13:00:58.980Z,2.47
2022-10-20T13:03:46.771Z,2.47
2022-10-20T13:06:30.204Z,2.40
2022-10-20T13:09:03.114Z,1.98
2022-10-20T13:11:38.408Z,2.28
2022-10-20T13:14:13.810Z,2.10
2022-10-20T13:17:24.069Z,2.25
2022-10-20T13:20:01.142Z,2.30
2022-10-20T13:22:53.152Z,2.10
2022-10-20T13:25:28.129Z,1.90
2022-10-20T13:28:12.431Z,2.25
2022-10-20T13:30:58.318Z,2.00
2022-10-20T13:34:03.321Z,1.88
2022-10-20T13:36:47.807Z,2.20
2022-10-20T13:39:31.852Z,2.30
2022-10-20T13:42:35.964Z,1.98
2022-10-20T13:45:31.907Z,2.00
2022-10-20T13:48:15.356Z,2.13
2022-10-20T13:50:45.988Z,2.10
2022-10-20T13:53:25.925Z,2.20
2022-10-20T13:55:58.544Z,2.20
2022-10-20T13:58:26.299Z,1.92
2022-10-20T14:01:03.087Z,1.90
2022-10-20T14:03:32.626Z,2.00
2022-10-20T14:05:59.484Z,2.05
2022-10-20T14:08:26.418Z,1.90
2022-10-20T14:11:04.571Z,2.00
2022-10-20T14:13:36.390Z,1.80
2022-10-20T14:16:05.847Z,1.90
2022-10-20T14:18:40.070Z,2.10
2022-10-20T14:21:15.571Z,1.90
2022-10-20T14:23:44.443Z,2.05
2022-10-20T14:26:15.755Z,2.28
2022-10-20T14:28:43.995Z,1.75
2022-10-20T14:31:12.180Z,1.85
2022-10-20T14:33:44.853Z,1.83
2022-10-20T14:36:24.491Z,1.83
2022-10-20T14:38:53.767Z,1.80
2022-10-20T14:41:30.249Z,1.83
2022-10-20T14:44:05.219Z,1.80
2022-10-20T14:46:40.406Z,1.88
2022-10-20T14:49:26.880Z,1.77
2022-10-20T14:51:53.309Z,1.75
2022-10-20T14:54:19.914Z,1.70
2022-10-20T14:56:58.620Z,1.95
2022-10-20T14:59:27.049Z,1.60
2022-10-20T15:02:02.201Z,1.60
2022-10-20T15:04:32.145Z,2.03
2022-10-20T15:07:05.970Z,1.80
2022-10-20T15:09:48.548Z,1.90
2022-10-20T15:12:22.240Z,1.70
2022-10-20T15:14:54.194Z,1.73
2022-10-20T15:17:36.822Z,1.70
2022-10-20T15:20:34.719Z,1.50
2022-10-20T15:23:13.420Z,1.80
2022-10-20T15:25:39.965Z,1.55
2022-10-20T15:28:10.783Z,1.65
2022-10-20T15:30:37.507Z,1.58
2022-10-20T15:33:04.207Z,1.80
2022-10-20T15:35:33.937Z,1.88
2022-10-20T15:38:00.878Z,1.80
2022-10-20T15:40:27.370Z,1.83
2022-10-20T15:42:53.941Z,1.77
2022-10-20T15:45:24.806Z,2.10
2022-10-20T15:47:51.445Z,1.90
2022-10-20T15:50:21.660Z,1.90
2022-10-20T15:52:50.846Z,1.83
2022-10-20T15:55:30.660Z,1.77
2022-10-20T15:57:57.536Z,1.52
2022-10-20T16:00:26.134Z,1.63
2022-10-20T16:02:53.086Z,1.58
2022-10-20T16:05:23.258Z,1.70
2022-10-20T16:07:53.126Z,2.05
2022-10-20T16:10:24.088Z,1.50
2022-10-20T16:12:51.067Z,1.65
2022-10-20T16:15:18.614Z,1.92
2022-10-20T16:17:46.443Z,1.60
2022-10-20T16:20:14.211Z,1.88
2022-10-20T16:22:40.933Z,1.90
2022-10-20T16:25:07.859Z,1.80
2022-10-20T16:27:34.594Z,1.70
2022-10-20T16:30:01.898Z,1.48
2022-10-20T16:32:32.898Z,1.50
2022-10-20T16:35:03.923Z,1.98
2022-10-20T16:37:32.131Z,1.43
2022-10-20T16:39:59.908Z,1.83
2022-10-20T16:42:28.313Z,1.60
2022-10-20T16:44:54.921Z,1.90
2022-10-20T16:47:21.589Z,1.88
2022-10-20T16:49:48.265Z,2.03
2022-10-20T16:52:15.144Z,1.67
2022-10-20T16:57:13.770Z,1.58
2022-10-20T16:59:41.243Z,1.80
2022-10-20T17:02:07.979Z,1.90
2022-10-20T17:04:34.698Z,1.70
2022-10-20T17:07:01.449Z,1.70
2022-10-20T17:09:30.115Z,1.80
2022-10-20T17:11:57.215Z,2.22
2022-10-20T17:14:24.017Z,2.00
2022-10-20T17:16:50.831Z,1.95
2022-10-20T17:19:17.780Z,1.75
2022-10-20T17:21:44.710Z,1.80
2022-10-20T17:24:15.959Z,1.85
2022-10-20T17:26:43.388Z,1.90
2022-10-20T17:29:10.356Z,1.92
2022-10-20T17:31:37.974Z,2.17
2022-10-20T17:34:04.630Z,2.00
2022-10-20T17:36:31.563Z,2.00
2022-10-20T17:39:01.312Z,2.00
2022-10-20T17:41:29.262Z,2.53
2022-10-20T17:43:55.997Z,2.30
2022-10-20T17:46:22.801Z,1.98
2022-10-20T17:48:49.673Z,2.00
2022-10-20T17:51:26.779Z,2.15
2022-10-20T17:53:58.088Z,1.73
2022-10-20T17:56:32.656Z,2.20
2022-10-20T17:59:02.988Z,1.80
2022-10-20T18:01:31.571Z,1.92
2022-10-20T18:04:07.545Z,1.97
2022-10-20T18:06:35.345Z,2.17
2022-10-20T18:09:05.856Z,2.20
2022-10-20T18:11:34.817Z,2.25
2022-10-20T18:14:01.903Z,2.35
2022-10-20T18:16:30.951Z,2.00
2022-10-20T18:18:59.468Z,2.22
2022-10-20T18:21:27.747Z,3.00
2022-10-20T18:23:59.144Z,3.35
2022-10-20T18:26:25.833Z,3.75
2022-10-20T18:28:52.567Z,4.15
2022-10-20T18:31:23.123Z,5.68
2022-10-20T18:33:58.177Z,5.80
2022-10-20T18:36:27.661Z,6.70
2022-10-20T18:38:55.126Z,7.25
2022-10-20T18:41:26.937Z,6.90
2022-10-20T18:43:58.633Z,7.80
2022-10-20T18:46:27.122Z,8.52
2022-10-20T18:48:54.497Z,8.00
2022-10-20T18:51:21.562Z,9.00
2022-10-20T18:53:52.842Z,8.95
2022-10-20T18:56:21.938Z,8.98
2022-10-20T18:58:51.447Z,9.98
2022-10-20T19:01:20.389Z,9.38
2022-10-20T19:03:50.063Z,9.90
2022-10-20T19:06:20.561Z,10.40
2022-10-20T19:08:52.691Z,9.18
2022-10-20T19:11:21.275Z,9.75
2022-10-20T19:13:48.441Z,9.80
2022-10-20T19:16:18.521Z,10.00
2022-10-20T19:18:47.175Z,10.77
2022-10-20T19:21:14.308Z,9.45
2022-10-20T19:23:45.915Z,10.63
2022-10-20T19:26:15.908Z,10.23
2022-10-20T19:28:48.742Z,10.93
2022-10-20T19:31:21.293Z,10.10
2022-10-20T19:33:51.006Z,9.50
2022-10-20T19:38:44.577Z,10.13
2022-10-20T19:41:11.589Z,10.13
2022-10-20T19:43:39.031Z,10.60
2022-10-20T19:46:08.091Z,10.10
2022-10-20T19:48:35.472Z,10.35
2022-10-20T19:51:02.634Z,10.20
2022-10-20T19:53:29.273Z,10.25
2022-10-20T19:55:56.157Z,9.57
2022-10-20T19:58:23.352Z,10.48
2022-10-20T20:00:52.511Z,9.80
2022-10-20T20:03:19.273Z,9.02
2022-10-20T20:05:48.325Z,9.88
2022-10-20T20:10:50.488Z,13.63
2022-10-20T20:13:17.293Z,16.20
2022-10-20T20:15:44.078Z,16.90
2022-10-20T20:18:13.033Z,17.75
2022-10-20T20:20:45.418Z,18.25
2022-10-20T20:23:12.741Z,19.15
2022-10-20T20:25:43.743Z,17.83
2022-10-20T20:28:11.122Z,19.42
2022-10-20T20:30:37.868Z,19.65
2022-10-20T20:33:04.835Z,20.98
2022-10-20T20:35:31.496Z,20.45
2022-10-20T20:37:58.392Z,22.45
2022-10-20T20:40:25.064Z,21.30
2022-10-20T20:42:51.796Z,21.10
2022-10-20T20:45:18.522Z,20.92
2022-10-20T20:47:46.759Z,20.52
2022-10-20T20:50:13.854Z,21.90
2022-10-20T20:52:40.620Z,22.60
2022-10-20T20:55:07.545Z,23.00
2022-10-20T20:57:34.132Z,21.70
2022-10-20T21:00:00.751Z,21.52
2022-10-20T21:02:27.448Z,22.63
2022-10-20T21:04:54.162Z,22.88
2022-10-20T21:07:20.861Z,22.48
2022-10-20T21:09:48.548Z,22.30
2022-10-20T21:12:15.147Z,21.65
2022-10-20T21:14:41.798Z,22.25
2022-10-20T21:17:08.473Z,22.70
2022-10-20T21:19:35.874Z,23.02
2022-10-20T21:22:02.492Z,22.17
2022-10-20T21:24:29.263Z,24.95
2022-10-20T21:26:56.726Z,24.58
2022-10-20T21:29:23.455Z,23.38
2022-10-20T21:31:50.102Z,24.48
2022-10-20T21:34:16.631Z,24.05
2022-10-20T21:36:43.172Z,24.35
2022-10-20T21:39:15.705Z,24.77
2022-10-20T21:41:43.621Z,24.33
2022-10-20T21:44:13.510Z,23.50
2022-10-20T21:46:44.047Z,24.25
2022-10-20T21:49:16.093Z,24.45
2022-10-20T21:51:45.652Z,22.85
2022-10-20T21:54:15.657Z,22.52
2022-10-20T21:56:44.652Z,22.52
2022-10-20T21:59:17.988Z,22.10
2022-10-20T22:01:46.252Z,22.13
2022-10-20T22:04:13.039Z,22.13
2022-10-20T22:06:40.536Z,20.92
2022-10-20T22:09:07.926Z,21.92
2022-10-20T22:11:37.268Z,21.75
2022-10-20T22:16:34.139Z,20.25
2022-10-20T22:19:10.974Z,19.55
2022-10-20T22:21:40.591Z,20.70
2022-10-20T22:24:07.252Z,19.42
2022-10-20T22:26:34.627Z,19.40
2022-10-20T22:29:03.383Z,19.23
2022-10-20T22:31:30.286Z,17.75
2022-10-20T22:33:58.954Z,18.85
2022-10-20T22:36:26.065Z,19.00
2022-10-20T22:38:52.955Z,18.45
2022-10-20T22:41:19.669Z,18.98
2022-10-20T22:43:46.409Z,18.08
2022-10-20T22:46:13.810Z,17.80
2022-10-20T22:48:40.534Z,17.83
2022-10-20T22:51:09.055Z,16.75
2022-10-20T22:53:36.924Z,17.17
2022-10-20T22:56:07.781Z,16.83
2022-10-20T22:58:35.117Z,17.10
2022-10-20T23:01:09.783Z,16.58
2022-10-20T23:03:37.355Z,16.40
2022-10-20T23:06:08.932Z,16.38
2022-10-20T23:08:40.251Z,16.63
2022-10-20T23:11:07.260Z,15.40
2022-10-20T23:13:34.011Z,14.82
2022-10-20T23:16:01.048Z,15.32
2022-10-20T23:18:28.519Z,14.77
2022-10-20T23:20:57.379Z,14.77
2022-10-20T23:23:25.277Z,15.60
2022-10-20T23:25:52.181Z,14.00
2022-10-20T23:28:19.325Z,14.20
2022-10-20T23:30:46.408Z,13.75
2022-10-20T23:33:13.240Z,13.82
2022-10-20T23:35:39.954Z,14.75
2022-10-20T23:38:09.430Z,13.32
2022-10-20T23:40:36.427Z,13.60
2022-10-20T23:43:03.076Z,14.13
2022-10-20T23:45:31.781Z,13.40
2022-10-20T23:48:00.849Z,13.68
2022-10-20T23:50:27.509Z,13.18
2022-10-20T23:52:54.104Z,14.05
2022-10-20T23:55:20.758Z,13.90
2022-10-20T23:57:49.274Z,14.02
